sensor_id;sensor_type;location;lat;lon;timestamp;pressure;altitude;pressure_sealevel;temperature;humidity
60646;BME280;46462;32.608;-117.032;2022-09-09T00:01:08;98290.21;;;29.15;47.61
60646;BME280;46462;32.608;-117.032;2022-09-09T00:03:37;98289.99;;;29.20;47.47
60646;BME280;46462;32.608;-117.032;2022-09-09T00:06:08;98292.13;;;29.24;47.37
60646;BME280;46462;32.608;-117.032;2022-09-09T00:08:47;98296.18;;;29.30;47.25
60646;BME280;46462;32.608;-117.032;2022-09-09T00:11:04;98299.62;;;29.34;47.15
60646;BME280;46462;32.608;-117.032;2022-09-09T00:13:37;98295.61;;;29.38;46.91
60646;BME280;46462;32.608;-117.032;2022-09-09T00:16:07;98295.85;;;29.42;46.81
60646;BME280;46462;32.608;-117.032;2022-09-09T00:18:45;98297.66;;;29.46;46.77
60646;BME280;46462;32.608;-117.032;2022-09-09T00:21:06;98295.17;;;29.47;46.71
60646;BME280;46462;32.608;-117.032;2022-09-09T00:23:35;98288.00;;;29.51;46.65
60646;BME280;46462;32.608;-117.032;2022-09-09T00:26:09;98287.06;;;29.52;46.61
60646;BME280;46462;32.608;-117.032;2022-09-09T00:28:41;98280.27;;;29.57;46.46
60646;BME280;46462;32.608;-117.032;2022-09-09T00:31:12;98280.07;;;29.59;46.50
60646;BME280;46462;32.608;-117.032;2022-09-09T00:33:34;98277.30;;;29.60;46.48
60646;BME280;46462;32.608;-117.032;2022-09-09T00:36:09;98275.29;;;29.63;46.42
60646;BME280;46462;32.608;-117.032;2022-09-09T00:38:36;98271.22;;;29.64;46.39
60646;BME280;46462;32.608;-117.032;2022-09-09T00:41:08;98267.83;;;29.66;46.41
60646;BME280;46462;32.608;-117.032;2022-09-09T00:43:36;98261.24;;;29.66;46.41
60646;BME280;46462;32.608;-117.032;2022-09-09T00:48:41;98257.05;;;29.71;46.38
60646;BME280;46462;32.608;-117.032;2022-09-09T00:51:11;98248.19;;;29.75;46.24
60646;BME280;46462;32.608;-117.032;2022-09-09T00:53:38;98245.27;;;29.76;46.23
60646;BME280;46462;32.608;-117.032;2022-09-09T00:56:12;98238.12;;;29.77;46.24
60646;BME280;46462;32.608;-117.032;2022-09-09T00:58:34;98233.31;;;29.78;46.24
60646;BME280;46462;32.608;-117.032;2022-09-09T01:01:08;98228.97;;;29.80;46.23
60646;BME280;46462;32.608;-117.032;2022-09-09T01:03:37;98235.55;;;29.82;46.17
60646;BME280;46462;32.608;-117.032;2022-09-09T01:06:14;98244.73;;;29.85;46.14
60646;BME280;46462;32.608;-117.032;2022-09-09T01:08:48;98242.14;;;29.86;46.16
60646;BME280;46462;32.608;-117.032;2022-09-09T01:11:09;98248.77;;;29.91;46.03
60646;BME280;46462;32.608;-117.032;2022-09-09T01:13:36;98250.27;;;29.92;46.06
60646;BME280;46462;32.608;-117.032;2022-09-09T01:16:09;98251.97;;;29.93;46.03
60646;BME280;46462;32.608;-117.032;2022-09-09T01:18:39;98252.57;;;29.97;45.94
60646;BME280;46462;32.608;-117.032;2022-09-09T01:21:13;98249.94;;;29.99;45.92
60646;BME280;46462;32.608;-117.032;2022-09-09T01:23:45;98242.26;;;29.97;45.96
60646;BME280;46462;32.608;-117.032;2022-09-09T01:26:13;98237.36;;;29.97;46.01
60646;BME280;46462;32.608;-117.032;2022-09-09T01:28:36;98232.62;;;29.99;46.00
60646;BME280;46462;32.608;-117.032;2022-09-09T01:31:07;98226.38;;;30.02;45.93
60646;BME280;46462;32.608;-117.032;2022-09-09T01:33:36;98225.65;;;30.02;45.90
60646;BME280;46462;32.608;-117.032;2022-09-09T01:36:09;98225.71;;;30.01;45.95
60646;BME280;46462;32.608;-117.032;2022-09-09T01:38:37;98221.52;;;30.03;45.97
60646;BME280;46462;32.608;-117.032;2022-09-09T01:41:06;98226.15;;;30.03;46.01
60646;BME280;46462;32.608;-117.032;2022-09-09T01:43:36;98222.33;;;30.03;45.99
60646;BME280;46462;32.608;-117.032;2022-09-09T01:46:06;98221.41;;;30.08;45.89
60646;BME280;46462;32.608;-117.032;2022-09-09T01:48:36;98219.29;;;30.11;45.79
60646;BME280;46462;32.608;-117.032;2022-09-09T01:51:08;98216.58;;;30.14;45.71
60646;BME280;46462;32.608;-117.032;2022-09-09T01:53:37;98215.17;;;30.13;45.79
60646;BME280;46462;32.608;-117.032;2022-09-09T01:56:17;98211.34;;;30.13;45.66
60646;BME280;46462;32.608;-117.032;2022-09-09T01:58:50;98207.03;;;30.13;45.81
60646;BME280;46462;32.608;-117.032;2022-09-09T02:01:14;98203.98;;;30.14;45.69
60646;BME280;46462;32.608;-117.032;2022-09-09T02:03:37;98202.97;;;30.15;45.73
60646;BME280;46462;32.608;-117.032;2022-09-09T02:06:14;98199.33;;;30.16;45.68
60646;BME280;46462;32.608;-117.032;2022-09-09T02:08:42;98195.09;;;30.16;45.78
60646;BME280;46462;32.608;-117.032;2022-09-09T02:11:11;98190.21;;;30.17;45.75
60646;BME280;46462;32.608;-117.032;2022-09-09T02:13:39;98187.50;;;30.17;45.77
60646;BME280;46462;32.608;-117.032;2022-09-09T02:16:11;98182.23;;;30.19;45.66
60646;BME280;46462;32.608;-117.032;2022-09-09T02:18:40;98184.09;;;30.19;45.70
60646;BME280;46462;32.608;-117.032;2022-09-09T02:21:08;98187.77;;;30.20;45.71
60646;BME280;46462;32.608;-117.032;2022-09-09T02:23:38;98183.72;;;30.20;45.67
60646;BME280;46462;32.608;-117.032;2022-09-09T02:26:09;98179.51;;;30.20;45.72
60646;BME280;46462;32.608;-117.032;2022-09-09T02:28:38;98178.59;;;30.21;45.70
60646;BME280;46462;32.608;-117.032;2022-09-09T02:31:08;98174.09;;;30.22;45.68
60646;BME280;46462;32.608;-117.032;2022-09-09T02:33:41;98176.42;;;30.24;45.68
60646;BME280;46462;32.608;-117.032;2022-09-09T02:36:09;98179.67;;;30.24;45.73
60646;BME280;46462;32.608;-117.032;2022-09-09T02:38:42;98178.99;;;30.26;45.65
60646;BME280;46462;32.608;-117.032;2022-09-09T02:41:08;98183.72;;;30.27;45.65
60646;BME280;46462;32.608;-117.032;2022-09-09T02:43:38;98181.94;;;30.27;45.77
60646;BME280;46462;32.608;-117.032;2022-09-09T02:46:18;98181.15;;;30.29;45.67
60646;BME280;46462;32.608;-117.032;2022-09-09T02:48:45;98180.82;;;30.29;45.79
60646;BME280;46462;32.608;-117.032;2022-09-09T02:51:15;98179.67;;;30.31;45.84
60646;BME280;46462;32.608;-117.032;2022-09-09T02:53:46;98197.25;;;29.35;46.02
60646;BME280;46462;32.608;-117.032;2022-09-09T02:56:14;98195.47;;;27.80;46.47
60646;BME280;46462;32.608;-117.032;2022-09-09T02:58:39;98194.51;;;26.08;48.25
60646;BME280;46462;32.608;-117.032;2022-09-09T03:01:09;98198.97;;;25.16;48.40
60646;BME280;46462;32.608;-117.032;2022-09-09T03:03:39;98199.38;;;24.30;49.14
60646;BME280;46462;32.608;-117.032;2022-09-09T03:06:09;98199.85;;;23.18;50.72
60646;BME280;46462;32.608;-117.032;2022-09-09T03:08:39;98204.15;;;22.93;55.11
60646;BME280;46462;32.608;-117.032;2022-09-09T03:11:10;98203.16;;;23.53;62.78
60646;BME280;46462;32.608;-117.032;2022-09-09T03:13:40;98199.30;;;24.04;64.60
60646;BME280;46462;32.608;-117.032;2022-09-09T03:16:10;98198.39;;;24.50;63.60
60646;BME280;46462;32.608;-117.032;2022-09-09T03:18:40;98198.32;;;24.63;57.27
60646;BME280;46462;32.608;-117.032;2022-09-09T03:21:10;98196.70;;;23.88;54.62
60646;BME280;46462;32.608;-117.032;2022-09-09T03:23:40;98202.23;;;23.99;61.95
60646;BME280;46462;32.608;-117.032;2022-09-09T03:26:10;98210.48;;;24.69;60.53
60646;BME280;46462;32.608;-117.032;2022-09-09T03:28:41;98215.86;;;25.28;59.61
60646;BME280;46462;32.608;-117.032;2022-09-09T03:31:11;98218.94;;;25.15;56.80
60646;BME280;46462;32.608;-117.032;2022-09-09T03:33:41;98220.22;;;24.66;54.85
60646;BME280;46462;32.608;-117.032;2022-09-09T03:36:11;98225.36;;;24.31;54.03
60646;BME280;46462;32.608;-117.032;2022-09-09T03:38:41;98232.67;;;24.44;58.96
60646;BME280;46462;32.608;-117.032;2022-09-09T03:41:11;98236.32;;;24.84;59.79
60646;BME280;46462;32.608;-117.032;2022-09-09T03:43:41;98236.22;;;24.63;54.80
60646;BME280;46462;32.608;-117.032;2022-09-09T03:46:11;98234.68;;;24.39;53.50
60646;BME280;46462;32.608;-117.032;2022-09-09T03:48:41;98239.91;;;24.60;58.50
60646;BME280;46462;32.608;-117.032;2022-09-09T03:51:12;98243.49;;;25.07;58.93
60646;BME280;46462;32.608;-117.032;2022-09-09T03:53:42;98245.07;;;25.01;54.03
60646;BME280;46462;32.608;-117.032;2022-09-09T03:56:12;98247.68;;;24.66;53.13
60646;BME280;46462;32.608;-117.032;2022-09-09T03:58:42;98248.17;;;24.57;58.75
60646;BME280;46462;32.608;-117.032;2022-09-09T04:01:13;98247.87;;;25.15;58.82
60646;BME280;46462;32.608;-117.032;2022-09-09T04:03:43;98250.04;;;25.14;54.57
60646;BME280;46462;32.608;-117.032;2022-09-09T04:06:14;98250.43;;;24.76;53.00
60646;BME280;46462;32.608;-117.032;2022-09-09T04:08:42;98247.90;;;24.71;57.89
60646;BME280;46462;32.608;-117.032;2022-09-09T04:11:13;98244.85;;;25.09;58.88
60646;BME280;46462;32.608;-117.032;2022-09-09T04:13:43;98240.62;;;25.38;54.87
60646;BME280;46462;32.608;-117.032;2022-09-09T04:16:13;98234.29;;;24.80;53.57
60646;BME280;46462;32.608;-117.032;2022-09-09T04:18:43;98234.58;;;24.83;56.18
60646;BME280;46462;32.608;-117.032;2022-09-09T04:21:13;98236.40;;;25.18;58.28
60646;BME280;46462;32.608;-117.032;2022-09-09T04:23:43;98232.37;;;25.42;58.69
60646;BME280;46462;32.608;-117.032;2022-09-09T04:26:13;98231.77;;;25.14;53.70
60646;BME280;46462;32.608;-117.032;2022-09-09T04:28:44;98226.81;;;24.57;53.43
60646;BME280;46462;32.608;-117.032;2022-09-09T04:31:16;98228.02;;;24.75;59.23
60646;BME280;46462;32.608;-117.032;2022-09-09T04:33:44;98223.16;;;25.07;59.75
60646;BME280;46462;32.608;-117.032;2022-09-09T04:36:14;98219.80;;;25.17;55.19
60646;BME280;46462;32.608;-117.032;2022-09-09T04:38:44;98214.65;;;24.86;53.44
60646;BME280;46462;32.608;-117.032;2022-09-09T04:41:15;98215.63;;;24.63;56.25
60646;BME280;46462;32.608;-117.032;2022-09-09T04:43:45;98218.59;;;24.93;59.02
60646;BME280;46462;32.608;-117.032;2022-09-09T04:46:14;98219.97;;;25.34;59.19
60646;BME280;46462;32.608;-117.032;2022-09-09T04:48:45;98219.73;;;25.35;57.12
60646;BME280;46462;32.608;-117.032;2022-09-09T04:51:15;98221.07;;;24.93;54.55
60646;BME280;46462;32.608;-117.032;2022-09-09T04:53:45;98201.27;;;25.04;57.95
60646;BME280;46462;32.608;-117.032;2022-09-09T04:56:16;98194.21;;;26.55;52.53
60646;BME280;46462;32.608;-117.032;2022-09-09T04:58:45;98192.20;;;27.31;50.24
60646;BME280;46462;32.608;-117.032;2022-09-09T05:01:17;98188.87;;;27.80;48.80
60646;BME280;46462;32.608;-117.032;2022-09-09T05:03:46;98188.19;;;28.15;47.80
60646;BME280;46462;32.608;-117.032;2022-09-09T05:06:18;98187.58;;;28.38;47.12
60646;BME280;46462;32.608;-117.032;2022-09-09T05:08:46;98189.11;;;28.54;46.68
60646;BME280;46462;32.608;-117.032;2022-09-09T05:11:18;98185.51;;;28.67;46.30
60646;BME280;46462;32.608;-117.032;2022-09-09T05:13:47;98182.20;;;28.76;46.08
60646;BME280;46462;32.608;-117.032;2022-09-09T05:16:17;98187.39;;;28.85;45.83
60646;BME280;46462;32.608;-117.032;2022-09-09T05:18:47;98184.76;;;28.91;45.69
60646;BME280;46462;32.608;-117.032;2022-09-09T05:21:17;98182.98;;;28.96;45.61
60646;BME280;46462;32.608;-117.032;2022-09-09T05:23:47;98174.95;;;28.99;45.58
60646;BME280;46462;32.608;-117.032;2022-09-09T05:26:18;98166.80;;;29.05;45.44
60646;BME280;46462;32.608;-117.032;2022-09-09T05:28:47;98168.57;;;29.08;45.39
60646;BME280;46462;32.608;-117.032;2022-09-09T05:31:17;98159.22;;;29.12;45.38
60646;BME280;46462;32.608;-117.032;2022-09-09T05:33:48;98153.52;;;29.16;45.29
60646;BME280;46462;32.608;-117.032;2022-09-09T05:36:19;98152.42;;;29.20;45.20
60646;BME280;46462;32.608;-117.032;2022-09-09T05:38:48;98157.40;;;29.20;45.21
60646;BME280;46462;32.608;-117.032;2022-09-09T05:41:18;98160.69;;;29.24;45.15
60646;BME280;46462;32.608;-117.032;2022-09-09T05:43:47;98163.09;;;29.27;45.06
60646;BME280;46462;32.608;-117.032;2022-09-09T05:46:19;98157.56;;;29.28;45.03
60646;BME280;46462;32.608;-117.032;2022-09-09T05:48:49;98157.73;;;29.30;45.02
60646;BME280;46462;32.608;-117.032;2022-09-09T05:51:19;98150.39;;;29.33;44.98
60646;BME280;46462;32.608;-117.032;2022-09-09T05:53:49;98159.11;;;29.35;44.97
60646;BME280;46462;32.608;-117.032;2022-09-09T05:56:20;98156.01;;;29.36;44.95
60646;BME280;46462;32.608;-117.032;2022-09-09T05:58:49;98152.42;;;29.40;44.89
60646;BME280;46462;32.608;-117.032;2022-09-09T06:01:20;98147.87;;;29.42;44.85
60646;BME280;46462;32.608;-117.032;2022-09-09T06:03:49;98155.07;;;29.43;44.82
60646;BME280;46462;32.608;-117.032;2022-09-09T06:06:20;98147.01;;;29.45;44.83
60646;BME280;46462;32.608;-117.032;2022-09-09T06:08:51;98141.96;;;29.47;44.83
60646;BME280;46462;32.608;-117.032;2022-09-09T06:11:20;98136.41;;;29.49;44.78
60646;BME280;46462;32.608;-117.032;2022-09-09T06:13:49;98128.25;;;29.50;44.77
60646;BME280;46462;32.608;-117.032;2022-09-09T06:16:21;98123.91;;;29.53;44.71
60646;BME280;46462;32.608;-117.032;2022-09-09T06:18:49;98120.83;;;29.51;44.77
60646;BME280;46462;32.608;-117.032;2022-09-09T06:21:20;98114.78;;;29.53;44.73
60646;BME280;46462;32.608;-117.032;2022-09-09T06:23:50;98116.99;;;29.53;44.72
60646;BME280;46462;32.608;-117.032;2022-09-09T06:26:21;98114.15;;;29.55;44.72
60646;BME280;46462;32.608;-117.032;2022-09-09T06:28:51;98105.90;;;29.56;44.73
60646;BME280;46462;32.608;-117.032;2022-09-09T06:31:22;98102.73;;;29.58;44.70
60646;BME280;46462;32.608;-117.032;2022-09-09T06:33:51;98100.14;;;29.59;44.71
60646;BME280;46462;32.608;-117.032;2022-09-09T06:36:21;98096.82;;;29.60;44.66
60646;BME280;46462;32.608;-117.032;2022-09-09T06:38:50;98096.99;;;29.60;44.71
60646;BME280;46462;32.608;-117.032;2022-09-09T06:41:21;98093.91;;;29.61;44.76
60646;BME280;46462;32.608;-117.032;2022-09-09T06:43:50;98099.39;;;29.60;44.72
60646;BME280;46462;32.608;-117.032;2022-09-09T06:46:21;98093.98;;;29.62;44.85
60646;BME280;46462;32.608;-117.032;2022-09-09T06:48:50;98096.83;;;29.62;44.77
60646;BME280;46462;32.608;-117.032;2022-09-09T06:51:22;98093.16;;;29.63;44.63
60646;BME280;46462;32.608;-117.032;2022-09-09T06:53:52;98092.33;;;29.64;44.78
60646;BME280;46462;32.608;-117.032;2022-09-09T06:56:22;98089.77;;;29.64;44.65
60646;BME280;46462;32.608;-117.032;2022-09-09T06:58:52;98084.49;;;29.66;44.72
60646;BME280;46462;32.608;-117.032;2022-09-09T07:01:22;98080.42;;;29.68;44.66
60646;BME280;46462;32.608;-117.032;2022-09-09T07:03:52;98075.39;;;29.69;44.64
60646;BME280;46462;32.608;-117.032;2022-09-09T07:06:22;98078.97;;;29.70;44.70
60646;BME280;46462;32.608;-117.032;2022-09-09T07:08:52;98077.49;;;29.71;44.60
60646;BME280;46462;32.608;-117.032;2022-09-09T07:11:22;98074.95;;;29.74;44.64
60646;BME280;46462;32.608;-117.032;2022-09-09T07:13:51;98076.57;;;29.75;44.57
60646;BME280;46462;32.608;-117.032;2022-09-09T07:16:22;98073.11;;;29.76;44.62
60646;BME280;46462;32.608;-117.032;2022-09-09T07:18:52;98066.72;;;29.77;44.53
60646;BME280;46462;32.608;-117.032;2022-09-09T07:21:21;98067.03;;;29.78;44.69
60646;BME280;46462;32.608;-117.032;2022-09-09T07:23:52;98057.41;;;29.76;44.62
60646;BME280;46462;32.608;-117.032;2022-09-09T07:26:23;98053.03;;;29.78;44.50
60646;BME280;46462;32.608;-117.032;2022-09-09T07:28:52;98047.79;;;29.78;44.63
60646;BME280;46462;32.608;-117.032;2022-09-09T07:31:23;98046.02;;;29.80;44.67
60646;BME280;46462;32.608;-117.032;2022-09-09T07:33:53;98045.77;;;29.80;44.53
60646;BME280;46462;32.608;-117.032;2022-09-09T07:36:24;98043.69;;;29.83;44.59
60646;BME280;46462;32.608;-117.032;2022-09-09T07:38:54;98043.06;;;29.85;44.70
60646;BME280;46462;32.608;-117.032;2022-09-09T07:41:27;98044.31;;;29.87;44.47
60646;BME280;46462;32.608;-117.032;2022-09-09T07:43:53;98044.25;;;29.86;44.44
60646;BME280;46462;32.608;-117.032;2022-09-09T07:46:25;98043.82;;;29.86;44.40
60646;BME280;46462;32.608;-117.032;2022-09-09T07:48:54;98037.38;;;29.87;44.45
60646;BME280;46462;32.608;-117.032;2022-09-09T07:51:25;98035.96;;;29.86;44.44
60646;BME280;46462;32.608;-117.032;2022-09-09T07:53:54;98040.46;;;29.87;44.48
60646;BME280;46462;32.608;-117.032;2022-09-09T07:56:23;98043.71;;;29.88;44.36
60646;BME280;46462;32.608;-117.032;2022-09-09T07:58:55;98042.31;;;29.88;44.42
60646;BME280;46462;32.608;-117.032;2022-09-09T08:01:26;98040.95;;;29.91;44.49
60646;BME280;46462;32.608;-117.032;2022-09-09T08:03:55;98045.32;;;29.91;44.51
60646;BME280;46462;32.608;-117.032;2022-09-09T08:06:23;98045.03;;;29.92;44.33
60646;BME280;46462;32.608;-117.032;2022-09-09T08:08:53;98041.39;;;29.92;44.39
60646;BME280;46462;32.608;-117.032;2022-09-09T08:11:26;98036.45;;;29.93;44.52
60646;BME280;46462;32.608;-117.032;2022-09-09T08:13:54;98032.42;;;29.93;44.49
60646;BME280;46462;32.608;-117.032;2022-09-09T08:16:25;98023.87;;;29.93;44.66
60646;BME280;46462;32.608;-117.032;2022-09-09T08:18:54;98019.85;;;29.96;44.48
60646;BME280;46462;32.608;-117.032;2022-09-09T08:21:25;98014.86;;;30.01;44.23
60646;BME280;46462;32.608;-117.032;2022-09-09T08:23:56;98015.71;;;30.04;44.18
60646;BME280;46462;32.608;-117.032;2022-09-09T08:26:26;98014.92;;;30.05;44.15
60646;BME280;46462;32.608;-117.032;2022-09-09T08:28:56;98016.77;;;30.06;43.99
60646;BME280;46462;32.608;-117.032;2022-09-09T08:31:26;98014.91;;;30.08;43.99
60646;BME280;46462;32.608;-117.032;2022-09-09T08:33:55;98017.62;;;30.10;43.93
60646;BME280;46462;32.608;-117.032;2022-09-09T08:36:28;98016.01;;;30.09;44.02
60646;BME280;46462;32.608;-117.032;2022-09-09T08:38:57;98016.09;;;30.08;43.87
60646;BME280;46462;32.608;-117.032;2022-09-09T08:41:37;98012.53;;;30.10;43.87
60646;BME280;46462;32.608;-117.032;2022-09-09T08:44:04;98010.74;;;30.10;43.87
60646;BME280;46462;32.608;-117.032;2022-09-09T08:46:27;98013.70;;;30.11;43.99
60646;BME280;46462;32.608;-117.032;2022-09-09T08:48:58;98013.24;;;30.12;44.03
60646;BME280;46462;32.608;-117.032;2022-09-09T08:51:27;98017.74;;;30.12;44.04
60646;BME280;46462;32.608;-117.032;2022-09-09T08:53:57;98022.92;;;30.11;44.02
60646;BME280;46462;32.608;-117.032;2022-09-09T08:56:27;98023.99;;;30.13;43.97
60646;BME280;46462;32.608;-117.032;2022-09-09T08:58:56;98021.16;;;30.14;43.78
60646;BME280;46462;32.608;-117.032;2022-09-09T09:01:36;98016.26;;;30.15;43.77
60646;BME280;46462;32.608;-117.032;2022-09-09T09:04:02;98015.55;;;30.17;43.76
60646;BME280;46462;32.608;-117.032;2022-09-09T09:06:36;98016.71;;;30.21;43.61
60646;BME280;46462;32.608;-117.032;2022-09-09T09:09:01;98016.83;;;30.20;43.61
60646;BME280;46462;32.608;-117.032;2022-09-09T09:11:26;98011.40;;;30.19;43.72
60646;BME280;46462;32.608;-117.032;2022-09-09T09:13:59;98012.04;;;30.19;43.62
60646;BME280;46462;32.608;-117.032;2022-09-09T09:16:31;98011.56;;;30.21;43.76
60646;BME280;46462;32.608;-117.032;2022-09-09T09:18:57;98015.69;;;30.21;43.74
60646;BME280;46462;32.608;-117.032;2022-09-09T09:21:32;98011.70;;;30.22;43.87
60646;BME280;46462;32.608;-117.032;2022-09-09T09:23:58;98013.34;;;30.22;43.78
60646;BME280;46462;32.608;-117.032;2022-09-09T09:26:31;98015.11;;;30.22;43.68
60646;BME280;46462;32.608;-117.032;2022-09-09T09:28:57;98012.79;;;30.22;43.76
60646;BME280;46462;32.608;-117.032;2022-09-09T09:31:27;98017.27;;;30.23;43.62
60646;BME280;46462;32.608;-117.032;2022-09-09T09:33:57;98017.18;;;30.23;43.76
60646;BME280;46462;32.608;-117.032;2022-09-09T09:36:37;98013.62;;;30.22;43.65
60646;BME280;46462;32.608;-117.032;2022-09-09T09:38:59;98015.46;;;30.22;43.86
60646;BME280;46462;32.608;-117.032;2022-09-09T09:41:33;98016.99;;;30.24;43.86
60646;BME280;46462;32.608;-117.032;2022-09-09T09:43:57;98020.30;;;30.23;43.90
60646;BME280;46462;32.608;-117.032;2022-09-09T09:46:28;98024.64;;;30.24;43.90
60646;BME280;46462;32.608;-117.032;2022-09-09T09:48:58;98032.40;;;30.24;43.69
60646;BME280;46462;32.608;-117.032;2022-09-09T09:51:29;98040.51;;;30.25;43.88
60646;BME280;46462;32.608;-117.032;2022-09-09T09:56:29;98047.42;;;30.26;43.84
60646;BME280;46462;32.608;-117.032;2022-09-09T09:58:58;98046.59;;;30.26;43.81
60646;BME280;46462;32.608;-117.032;2022-09-09T10:01:30;98044.07;;;30.27;43.81
60646;BME280;46462;32.608;-117.032;2022-09-09T10:04:00;98049.05;;;30.29;43.78
60646;BME280;46462;32.608;-117.032;2022-09-09T10:06:32;98048.00;;;30.30;43.81
60646;BME280;46462;32.608;-117.032;2022-09-09T10:08:58;98047.75;;;30.31;43.99
60646;BME280;46462;32.608;-117.032;2022-09-09T10:11:40;98051.44;;;30.31;43.68
60646;BME280;46462;32.608;-117.032;2022-09-09T10:14:05;98048.91;;;30.31;43.84
60646;BME280;46462;32.608;-117.032;2022-09-09T10:16:40;98050.16;;;30.33;43.71
60646;BME280;46462;32.608;-117.032;2022-09-09T10:19:00;98048.36;;;30.34;43.72
60646;BME280;46462;32.608;-117.032;2022-09-09T10:21:41;98041.81;;;30.37;43.71
60646;BME280;46462;32.608;-117.032;2022-09-09T10:24:13;98037.19;;;30.38;43.81
60646;BME280;46462;32.608;-117.032;2022-09-09T10:26:37;98031.94;;;30.39;43.80
60646;BME280;46462;32.608;-117.032;2022-09-09T10:29:10;98027.58;;;30.38;43.79
60646;BME280;46462;32.608;-117.032;2022-09-09T10:31:37;98022.33;;;30.39;43.77
60646;BME280;46462;32.608;-117.032;2022-09-09T10:34:06;98011.81;;;30.39;43.72
60646;BME280;46462;32.608;-117.032;2022-09-09T10:36:29;98013.16;;;30.39;43.66
60646;BME280;46462;32.608;-117.032;2022-09-09T10:39:03;98002.55;;;30.39;43.85
60646;BME280;46462;32.608;-117.032;2022-09-09T10:41:44;98002.82;;;30.40;43.66
60646;BME280;46462;32.608;-117.032;2022-09-09T10:44:11;97996.69;;;30.40;43.78
60646;BME280;46462;32.608;-117.032;2022-09-09T10:46:37;97993.24;;;30.40;43.71
60646;BME280;46462;32.608;-117.032;2022-09-09T10:49:08;97993.08;;;30.40;43.86
60646;BME280;46462;32.608;-117.032;2022-09-09T10:51:36;97986.10;;;30.43;43.79
60646;BME280;46462;32.608;-117.032;2022-09-09T10:54:13;97986.63;;;30.42;43.71
60646;BME280;46462;32.608;-117.032;2022-09-09T10:56:31;97983.65;;;30.44;43.85
60646;BME280;46462;32.608;-117.032;2022-09-09T10:59:04;97978.39;;;30.43;43.60
60646;BME280;46462;32.608;-117.032;2022-09-09T11:01:34;97969.48;;;30.44;43.84
60646;BME280;46462;32.608;-117.032;2022-09-09T11:04:05;97965.05;;;30.44;43.85
60646;BME280;46462;32.608;-117.032;2022-09-09T11:06:35;97970.73;;;30.45;43.83
60646;BME280;46462;32.608;-117.032;2022-09-09T11:09:01;97966.44;;;30.45;43.93
60646;BME280;46462;32.608;-117.032;2022-09-09T11:11:34;97964.32;;;30.46;43.96
60646;BME280;46462;32.608;-117.032;2022-09-09T11:14:05;97957.89;;;30.46;43.75
60646;BME280;46462;32.608;-117.032;2022-09-09T11:16:35;97963.32;;;30.48;43.97
60646;BME280;46462;32.608;-117.032;2022-09-09T11:19:03;97968.28;;;30.49;43.63
60646;BME280;46462;32.608;-117.032;2022-09-09T11:21:35;97973.03;;;30.50;43.83
60646;BME280;46462;32.608;-117.032;2022-09-09T11:24:03;97974.83;;;30.50;43.53
60646;BME280;46462;32.608;-117.032;2022-09-09T11:26:35;97976.70;;;30.53;43.74
60646;BME280;46462;32.608;-117.032;2022-09-09T11:29:19;97972.84;;;30.53;43.73
60646;BME280;46462;32.608;-117.032;2022-09-09T11:31:43;97970.93;;;30.55;43.64
60646;BME280;46462;32.608;-117.032;2022-09-09T11:34:14;97972.08;;;30.54;43.70
60646;BME280;46462;32.608;-117.032;2022-09-09T11:36:38;97961.29;;;30.57;43.48
60646;BME280;46462;32.608;-117.032;2022-09-09T11:39:12;97966.01;;;30.59;43.50
60646;BME280;46462;32.608;-117.032;2022-09-09T11:41:35;97952.55;;;30.61;43.41
60646;BME280;46462;32.608;-117.032;2022-09-09T11:44:10;97963.30;;;30.62;43.44
60646;BME280;46462;32.608;-117.032;2022-09-09T11:46:34;97961.57;;;30.61;43.41
60646;BME280;46462;32.608;-117.032;2022-09-09T11:49:03;97953.90;;;30.61;43.46
60646;BME280;46462;32.608;-117.032;2022-09-09T11:51:33;97949.53;;;30.61;43.66
60646;BME280;46462;32.608;-117.032;2022-09-09T11:54:29;97953.54;;;30.60;43.73
60646;BME280;46462;32.608;-117.032;2022-09-09T11:56:34;97950.57;;;30.63;43.54
60646;BME280;46462;32.608;-117.032;2022-09-09T11:59:04;97956.90;;;30.63;43.44
60646;BME280;46462;32.608;-117.032;2022-09-09T12:01:37;97956.57;;;30.65;43.40
60646;BME280;46462;32.608;-117.032;2022-09-09T12:04:13;97955.77;;;30.65;43.54
60646;BME280;46462;32.608;-117.032;2022-09-09T12:06:41;97952.42;;;30.64;43.59
60646;BME280;46462;32.608;-117.032;2022-09-09T12:09:11;97946.84;;;30.63;43.49
60646;BME280;46462;32.608;-117.032;2022-09-09T12:11:33;97946.08;;;30.65;43.62
60646;BME280;46462;32.608;-117.032;2022-09-09T12:14:03;97939.58;;;30.64;44.00
60646;BME280;46462;32.608;-117.032;2022-09-09T12:16:34;97936.67;;;30.63;44.04
60646;BME280;46462;32.608;-117.032;2022-09-09T12:19:15;97932.28;;;30.63;44.14
60646;BME280;46462;32.608;-117.032;2022-09-09T12:21:39;97928.47;;;30.64;44.23
60646;BME280;46462;32.608;-117.032;2022-09-09T12:24:07;97934.33;;;30.63;44.31
60646;BME280;46462;32.608;-117.032;2022-09-09T12:26:37;97930.46;;;30.65;44.13
60646;BME280;46462;32.608;-117.032;2022-09-09T12:29:12;97934.67;;;30.66;44.17
60646;BME280;46462;32.608;-117.032;2022-09-09T12:31:39;97939.84;;;30.67;44.17
60646;BME280;46462;32.608;-117.032;2022-09-09T12:34:10;97939.72;;;30.65;44.06
60646;BME280;46462;32.608;-117.032;2022-09-09T12:36:34;97937.25;;;30.66;44.16
60646;BME280;46462;32.608;-117.032;2022-09-09T12:39:10;97937.09;;;30.66;44.08
60646;BME280;46462;32.608;-117.032;2022-09-09T12:41:34;97942.89;;;30.67;44.17
60646;BME280;46462;32.608;-117.032;2022-09-09T12:44:05;97941.89;;;30.65;44.21
60646;BME280;46462;32.608;-117.032;2022-09-09T12:46:38;97944.74;;;30.68;44.18
60646;BME280;46462;32.608;-117.032;2022-09-09T12:49:04;97940.52;;;30.67;44.14